sensor_id;sensor_type;location;lat;lon;timestamp;P1;durP1;ratioP1;P2;durP2;ratioP2
7773;SDS011;3931;42.260;23.116;2023-02-19T00:01:32;51.20;;;23.93;;
7773;SDS011;3931;42.260;23.116;2023-02-19T00:03:59;42.80;;;21.80;;
7773;SDS011;3931;42.260;23.116;2023-02-19T00:06:28;53.07;;;23.93;;
7773;SDS011;3931;42.260;23.116;2023-02-19T00:08:55;46.83;;;22.73;;
7773;SDS011;3931;42.260;23.116;2023-02-19T00:11:21;59.13;;;25.10;;
7773;SDS011;3931;42.260;23.116;2023-02-19T00:13:50;55.17;;;24.30;;
7773;SDS011;3931;42.260;23.116;2023-02-19T00:16:18;56.40;;;25.20;;
7773;SDS011;3931;42.260;23.116;2023-02-19T00:18:46;51.20;;;24.57;;
7773;SDS011;3931;42.260;23.116;2023-02-19T00:21:12;50.67;;;23.33;;
7773;SDS011;3931;42.260;23.116;2023-02-19T00:23:39;53.53;;;24.13;;
7773;SDS011;3931;42.260;23.116;2023-02-19T00:26:05;52.10;;;23.70;;
7773;SDS011;3931;42.260;23.116;2023-02-19T00:28:33;54.67;;;22.50;;
7773;SDS011;3931;42.260;23.116;2023-02-19T00:31:03;46.03;;;21.90;;
7773;SDS011;3931;42.260;23.116;2023-02-19T00:33:30;50.27;;;21.73;;
7773;SDS011;3931;42.260;23.116;2023-02-19T00:35:58;49.40;;;23.40;;
7773;SDS011;3931;42.260;23.116;2023-02-19T00:38:24;49.57;;;23.83;;
7773;SDS011;3931;42.260;23.116;2023-02-19T00:40:50;46.80;;;22.80;;
7773;SDS011;3931;42.260;23.116;2023-02-19T00:43:16;45.73;;;21.03;;
7773;SDS011;3931;42.260;23.116;2023-02-19T00:45:42;49.57;;;21.70;;
7773;SDS011;3931;42.260;23.116;2023-02-19T00:48:10;46.93;;;22.23;;
7773;SDS011;3931;42.260;23.116;2023-02-19T00:50:36;37.60;;;17.80;;
7773;SDS011;3931;42.260;23.116;2023-02-19T00:53:02;31.83;;;15.90;;
7773;SDS011;3931;42.260;23.116;2023-02-19T00:55:28;29.73;;;15.30;;
7773;SDS011;3931;42.260;23.116;2023-02-19T00:57:54;37.07;;;16.23;;
7773;SDS011;3931;42.260;23.116;2023-02-19T01:00:20;41.80;;;18.30;;
7773;SDS011;3931;42.260;23.116;2023-02-19T01:02:46;42.00;;;18.00;;
7773;SDS011;3931;42.260;23.116;2023-02-19T01:05:13;42.43;;;18.40;;
7773;SDS011;3931;42.260;23.116;2023-02-19T01:07:39;38.77;;;18.70;;
7773;SDS011;3931;42.260;23.116;2023-02-19T01:10:05;46.93;;;16.20;;
7773;SDS011;3931;42.260;23.116;2023-02-19T01:12:31;27.30;;;14.03;;
7773;SDS011;3931;42.260;23.116;2023-02-19T01:14:57;30.10;;;10.97;;
7773;SDS011;3931;42.260;23.116;2023-02-19T01:17:24;25.20;;;11.80;;
7773;SDS011;3931;42.260;23.116;2023-02-19T01:19:50;23.43;;;11.90;;
7773;SDS011;3931;42.260;23.116;2023-02-19T01:22:17;26.20;;;12.60;;
7773;SDS011;3931;42.260;23.116;2023-02-19T01:24:43;26.20;;;13.13;;
7773;SDS011;3931;42.260;23.116;2023-02-19T01:27:09;30.07;;;13.80;;
7773;SDS011;3931;42.260;23.116;2023-02-19T01:29:35;28.07;;;13.37;;
7773;SDS011;3931;42.260;23.116;2023-02-19T01:32:02;32.93;;;13.80;;
7773;SDS011;3931;42.260;23.116;2023-02-19T01:34:28;26.17;;;13.03;;
7773;SDS011;3931;42.260;23.116;2023-02-19T01:36:57;25.20;;;12.50;;
7773;SDS011;3931;42.260;23.116;2023-02-19T01:39:24;25.17;;;12.70;;
7773;SDS011;3931;42.260;23.116;2023-02-19T01:41:50;21.10;;;12.60;;
7773;SDS011;3931;42.260;23.116;2023-02-19T01:47:19;23.97;;;11.70;;
7773;SDS011;3931;42.260;23.116;2023-02-19T01:49:46;22.60;;;12.20;;
7773;SDS011;3931;42.260;23.116;2023-02-19T01:52:18;22.77;;;11.43;;
7773;SDS011;3931;42.260;23.116;2023-02-19T01:54:48;22.23;;;12.43;;
7773;SDS011;3931;42.260;23.116;2023-02-19T01:57:15;32.07;;;13.40;;
7773;SDS011;3931;42.260;23.116;2023-02-19T01:59:46;41.53;;;17.30;;
7773;SDS011;3931;42.260;23.116;2023-02-19T02:02:18;30.07;;;15.50;;
7773;SDS011;3931;42.260;23.116;2023-02-19T02:04:45;28.23;;;14.40;;
7773;SDS011;3931;42.260;23.116;2023-02-19T02:07:11;27.60;;;14.67;;
7773;SDS011;3931;42.260;23.116;2023-02-19T02:09:52;28.00;;;14.60;;
7773;SDS011;3931;42.260;23.116;2023-02-19T02:12:37;26.70;;;15.03;;
7773;SDS011;3931;42.260;23.116;2023-02-19T02:15:03;24.73;;;14.03;;
7773;SDS011;3931;42.260;23.116;2023-02-19T02:17:33;37.00;;;15.30;;
7773;SDS011;3931;42.260;23.116;2023-02-19T02:20:16;37.43;;;17.87;;
7773;SDS011;3931;42.260;23.116;2023-02-19T02:23:02;39.00;;;16.73;;
7773;SDS011;3931;42.260;23.116;2023-02-19T02:25:42;31.50;;;16.10;;
7773;SDS011;3931;42.260;23.116;2023-02-19T02:28:34;31.67;;;16.10;;
7773;SDS011;3931;42.260;23.116;2023-02-19T02:31:19;34.47;;;16.20;;
7773;SDS011;3931;42.260;23.116;2023-02-19T02:33:52;31.47;;;16.13;;
7773;SDS011;3931;42.260;23.116;2023-02-19T02:36:22;33.73;;;15.27;;
7773;SDS011;3931;42.260;23.116;2023-02-19T02:38:53;28.30;;;15.23;;
7773;SDS011;3931;42.260;23.116;2023-02-19T02:41:20;35.73;;;15.63;;
7773;SDS011;3931;42.260;23.116;2023-02-19T02:43:47;32.90;;;16.00;;
7773;SDS011;3931;42.260;23.116;2023-02-19T02:46:14;27.00;;;15.97;;
7773;SDS011;3931;42.260;23.116;2023-02-19T02:48:45;29.13;;;15.63;;
7773;SDS011;3931;42.260;23.116;2023-02-19T02:51:18;42.37;;;14.83;;
7773;SDS011;3931;42.260;23.116;2023-02-19T02:53:48;30.00;;;14.70;;
7773;SDS011;3931;42.260;23.116;2023-02-19T02:56:35;29.83;;;13.37;;
7773;SDS011;3931;42.260;23.116;2023-02-19T02:59:04;24.80;;;12.90;;
7773;SDS011;3931;42.260;23.116;2023-02-19T03:01:34;24.97;;;12.97;;
7773;SDS011;3931;42.260;23.116;2023-02-19T03:04:24;33.30;;;16.73;;
7773;SDS011;3931;42.260;23.116;2023-02-19T03:06:54;26.13;;;14.17;;
7773;SDS011;3931;42.260;23.116;2023-02-19T03:09:25;26.37;;;13.17;;
7773;SDS011;3931;42.260;23.116;2023-02-19T03:11:56;37.00;;;16.27;;
7773;SDS011;3931;42.260;23.116;2023-02-19T03:14:45;33.63;;;14.40;;
7773;SDS011;3931;42.260;23.116;2023-02-19T03:17:32;30.33;;;14.27;;
7773;SDS011;3931;42.260;23.116;2023-02-19T03:20:22;25.60;;;13.10;;
7773;SDS011;3931;42.260;23.116;2023-02-19T03:22:49;25.10;;;13.10;;
7773;SDS011;3931;42.260;23.116;2023-02-19T03:25:17;23.80;;;13.30;;
7773;SDS011;3931;42.260;23.116;2023-02-19T03:28:06;34.60;;;14.20;;
7773;SDS011;3931;42.260;23.116;2023-02-19T03:30:35;23.30;;;12.63;;
7773;SDS011;3931;42.260;23.116;2023-02-19T03:33:05;26.33;;;12.60;;
7773;SDS011;3931;42.260;23.116;2023-02-19T03:35:35;21.50;;;12.30;;
7773;SDS011;3931;42.260;23.116;2023-02-19T03:38:06;21.03;;;11.93;;
7773;SDS011;3931;42.260;23.116;2023-02-19T03:40:39;21.80;;;11.83;;
7773;SDS011;3931;42.260;23.116;2023-02-19T03:43:12;20.40;;;10.60;;
7773;SDS011;3931;42.260;23.116;2023-02-19T03:45:44;22.97;;;11.27;;
7773;SDS011;3931;42.260;23.116;2023-02-19T03:48:17;18.00;;;10.70;;
7773;SDS011;3931;42.260;23.116;2023-02-19T03:50:49;17.97;;;10.50;;
7773;SDS011;3931;42.260;23.116;2023-02-19T03:53:23;19.67;;;9.60;;
7773;SDS011;3931;42.260;23.116;2023-02-19T03:55:58;18.90;;;10.93;;
7773;SDS011;3931;42.260;23.116;2023-02-19T03:58:34;20.97;;;10.43;;
7773;SDS011;3931;42.260;23.116;2023-02-19T04:01:10;22.93;;;10.70;;
7773;SDS011;3931;42.260;23.116;2023-02-19T04:03:40;26.63;;;12.20;;
7773;SDS011;3931;42.260;23.116;2023-02-19T04:06:11;20.90;;;11.70;;
7773;SDS011;3931;42.260;23.116;2023-02-19T04:08:41;21.77;;;11.83;;
7773;SDS011;3931;42.260;23.116;2023-02-19T04:11:10;25.57;;;12.20;;
7773;SDS011;3931;42.260;23.116;2023-02-19T04:13:40;22.13;;;11.70;;
7773;SDS011;3931;42.260;23.116;2023-02-19T04:16:11;24.60;;;12.37;;
7773;SDS011;3931;42.260;23.116;2023-02-19T04:18:42;24.60;;;12.17;;
7773;SDS011;3931;42.260;23.116;2023-02-19T04:21:12;23.53;;;13.40;;
7773;SDS011;3931;42.260;23.116;2023-02-19T04:23:41;23.93;;;11.93;;
7773;SDS011;3931;42.260;23.116;2023-02-19T04:26:09;21.90;;;12.43;;
7773;SDS011;3931;42.260;23.116;2023-02-19T04:28:36;25.77;;;12.70;;
7773;SDS011;3931;42.260;23.116;2023-02-19T04:31:04;26.37;;;12.90;;
7773;SDS011;3931;42.260;23.116;2023-02-19T04:33:30;22.00;;;12.80;;
7773;SDS011;3931;42.260;23.116;2023-02-19T04:35:56;44.50;;;23.00;;
7773;SDS011;3931;42.260;23.116;2023-02-19T04:38:23;34.93;;;16.80;;
7773;SDS011;3931;42.260;23.116;2023-02-19T04:40:49;38.63;;;17.00;;
7773;SDS011;3931;42.260;23.116;2023-02-19T04:43:15;32.10;;;14.13;;
7773;SDS011;3931;42.260;23.116;2023-02-19T04:45:41;64.13;;;23.83;;
7773;SDS011;3931;42.260;23.116;2023-02-19T04:48:08;38.90;;;16.97;;
7773;SDS011;3931;42.260;23.116;2023-02-19T04:50:36;23.00;;;11.80;;
7773;SDS011;3931;42.260;23.116;2023-02-19T04:53:02;19.30;;;10.30;;
7773;SDS011;3931;42.260;23.116;2023-02-19T04:55:29;26.90;;;13.20;;
7773;SDS011;3931;42.260;23.116;2023-02-19T04:57:55;77.10;;;29.73;;
7773;SDS011;3931;42.260;23.116;2023-02-19T05:00:21;46.73;;;19.40;;
7773;SDS011;3931;42.260;23.116;2023-02-19T05:02:47;33.27;;;14.20;;
7773;SDS011;3931;42.260;23.116;2023-02-19T05:05:13;26.53;;;13.00;;
7773;SDS011;3931;42.260;23.116;2023-02-19T05:07:39;22.50;;;12.70;;
7773;SDS011;3931;42.260;23.116;2023-02-19T05:10:05;20.53;;;11.07;;
7773;SDS011;3931;42.260;23.116;2023-02-19T05:12:32;27.17;;;10.67;;
7773;SDS011;3931;42.260;23.116;2023-02-19T05:14:58;34.80;;;13.83;;
7773;SDS011;3931;42.260;23.116;2023-02-19T05:17:24;32.43;;;18.00;;
7773;SDS011;3931;42.260;23.116;2023-02-19T05:19:51;23.37;;;13.50;;
7773;SDS011;3931;42.260;23.116;2023-02-19T05:22:17;29.00;;;17.07;;
7773;SDS011;3931;42.260;23.116;2023-02-19T05:24:43;24.70;;;15.10;;
7773;SDS011;3931;42.260;23.116;2023-02-19T05:27:09;30.97;;;17.13;;
7773;SDS011;3931;42.260;23.116;2023-02-19T05:29:35;57.30;;;29.20;;
7773;SDS011;3931;42.260;23.116;2023-02-19T05:32:01;25.13;;;13.70;;
7773;SDS011;3931;42.260;23.116;2023-02-19T05:34:27;42.53;;;24.00;;
7773;SDS011;3931;42.260;23.116;2023-02-19T05:36:53;32.50;;;16.50;;
7773;SDS011;3931;42.260;23.116;2023-02-19T05:39:20;28.37;;;15.90;;
7773;SDS011;3931;42.260;23.116;2023-02-19T05:41:46;24.80;;;15.30;;
7773;SDS011;3931;42.260;23.116;2023-02-19T05:44:12;24.73;;;14.17;;
7773;SDS011;3931;42.260;23.116;2023-02-19T05:46:38;38.13;;;19.47;;
7773;SDS011;3931;42.260;23.116;2023-02-19T05:49:04;71.63;;;33.57;;
7773;SDS011;3931;42.260;23.116;2023-02-19T05:51:30;47.70;;;25.23;;
7773;SDS011;3931;42.260;23.116;2023-02-19T05:53:56;45.37;;;23.50;;
7773;SDS011;3931;42.260;23.116;2023-02-19T05:56:26;52.00;;;25.70;;
7773;SDS011;3931;42.260;23.116;2023-02-19T05:58:56;45.43;;;19.97;;
7773;SDS011;3931;42.260;23.116;2023-02-19T06:01:23;41.90;;;20.40;;
7773;SDS011;3931;42.260;23.116;2023-02-19T06:03:51;42.27;;;22.53;;
7773;SDS011;3931;42.260;23.116;2023-02-19T06:06:18;43.23;;;20.10;;
7773;SDS011;3931;42.260;23.116;2023-02-19T06:08:46;39.37;;;18.47;;
7773;SDS011;3931;42.260;23.116;2023-02-19T06:11:13;45.70;;;19.23;;
7773;SDS011;3931;42.260;23.116;2023-02-19T06:13:39;42.10;;;21.70;;
7773;SDS011;3931;42.260;23.116;2023-02-19T06:16:05;40.70;;;17.10;;
7773;SDS011;3931;42.260;23.116;2023-02-19T06:18:32;37.53;;;19.77;;
7773;SDS011;3931;42.260;23.116;2023-02-19T06:21:00;29.37;;;15.77;;
7773;SDS011;3931;42.260;23.116;2023-02-19T06:23:26;28.13;;;15.37;;
7773;SDS011;3931;42.260;23.116;2023-02-19T06:25:52;28.73;;;14.40;;
7773;SDS011;3931;42.260;23.116;2023-02-19T06:28:18;30.00;;;15.80;;
7773;SDS011;3931;42.260;23.116;2023-02-19T06:30:44;32.70;;;14.17;;
7773;SDS011;3931;42.260;23.116;2023-02-19T06:33:10;32.77;;;12.50;;
7773;SDS011;3931;42.260;23.116;2023-02-19T06:35:36;29.00;;;15.30;;
7773;SDS011;3931;42.260;23.116;2023-02-19T06:38:03;37.33;;;15.10;;
7773;SDS011;3931;42.260;23.116;2023-02-19T06:40:29;51.73;;;21.40;;
7773;SDS011;3931;42.260;23.116;2023-02-19T06:42:55;45.23;;;22.77;;
7773;SDS011;3931;42.260;23.116;2023-02-19T06:45:21;57.10;;;22.67;;
7773;SDS011;3931;42.260;23.116;2023-02-19T06:47:47;33.67;;;17.53;;
7773;SDS011;3931;42.260;23.116;2023-02-19T06:50:13;41.83;;;23.13;;
7773;SDS011;3931;42.260;23.116;2023-02-19T06:52:39;48.73;;;23.77;;
7773;SDS011;3931;42.260;23.116;2023-02-19T06:55:06;36.50;;;19.50;;
7773;SDS011;3931;42.260;23.116;2023-02-19T06:57:33;46.20;;;22.83;;
7773;SDS011;3931;42.260;23.116;2023-02-19T06:59:59;39.80;;;18.13;;
7773;SDS011;3931;42.260;23.116;2023-02-19T07:02:25;39.60;;;19.13;;
7773;SDS011;3931;42.260;23.116;2023-02-19T07:04:51;38.87;;;21.40;;
7773;SDS011;3931;42.260;23.116;2023-02-19T07:07:17;50.53;;;26.93;;
7773;SDS011;3931;42.260;23.116;2023-02-19T07:09:43;57.70;;;28.57;;
7773;SDS011;3931;42.260;23.116;2023-02-19T07:12:10;56.03;;;27.77;;
7773;SDS011;3931;42.260;23.116;2023-02-19T07:14:36;49.20;;;25.73;;
7773;SDS011;3931;42.260;23.116;2023-02-19T07:17:02;47.33;;;26.03;;
7773;SDS011;3931;42.260;23.116;2023-02-19T07:19:28;41.83;;;24.23;;
7773;SDS011;3931;42.260;23.116;2023-02-19T07:21:54;42.00;;;23.07;;
7773;SDS011;3931;42.260;23.116;2023-02-19T07:24:20;51.30;;;25.97;;
7773;SDS011;3931;42.260;23.116;2023-02-19T07:26:46;51.50;;;24.50;;
7773;SDS011;3931;42.260;23.116;2023-02-19T07:29:13;44.13;;;22.47;;
7773;SDS011;3931;42.260;23.116;2023-02-19T07:31:39;39.37;;;22.90;;
7773;SDS011;3931;42.260;23.116;2023-02-19T07:34:05;50.63;;;21.00;;
7773;SDS011;3931;42.260;23.116;2023-02-19T07:36:32;43.40;;;20.70;;
7773;SDS011;3931;42.260;23.116;2023-02-19T07:38:58;41.27;;;22.00;;
7773;SDS011;3931;42.260;23.116;2023-02-19T07:41:25;40.63;;;20.53;;
7773;SDS011;3931;42.260;23.116;2023-02-19T07:43:52;41.20;;;21.80;;
7773;SDS011;3931;42.260;23.116;2023-02-19T07:46:19;58.87;;;33.20;;
7773;SDS011;3931;42.260;23.116;2023-02-19T07:48:46;69.00;;;37.40;;
7773;SDS011;3931;42.260;23.116;2023-02-19T07:51:13;86.77;;;41.40;;
7773;SDS011;3931;42.260;23.116;2023-02-19T07:53:42;66.77;;;35.90;;
7773;SDS011;3931;42.260;23.116;2023-02-19T07:56:09;59.07;;;29.87;;
7773;SDS011;3931;42.260;23.116;2023-02-19T07:58:36;58.67;;;26.63;;
7773;SDS011;3931;42.260;23.116;2023-02-19T08:01:07;46.80;;;19.77;;
7773;SDS011;3931;42.260;23.116;2023-02-19T08:03:35;53.20;;;21.70;;
7773;SDS011;3931;42.260;23.116;2023-02-19T08:06:01;81.60;;;21.80;;
7773;SDS011;3931;42.260;23.116;2023-02-19T08:08:27;80.10;;;25.00;;
7773;SDS011;3931;42.260;23.116;2023-02-19T08:10:53;84.90;;;19.60;;
7773;SDS011;3931;42.260;23.116;2023-02-19T08:13:37;91.07;;;18.27;;
7773;SDS011;3931;42.260;23.116;2023-02-19T08:16:10;74.23;;;20.13;;
7773;SDS011;3931;42.260;23.116;2023-02-19T08:18:38;93.63;;;22.93;;
7773;SDS011;3931;42.260;23.116;2023-02-19T08:21:04;84.37;;;20.90;;
7773;SDS011;3931;42.260;23.116;2023-02-19T08:23:30;71.53;;;21.77;;
7773;SDS011;3931;42.260;23.116;2023-02-19T08:25:57;59.93;;;13.83;;
7773;SDS011;3931;42.260;23.116;2023-02-19T08:28:24;58.20;;;18.80;;
7773;SDS011;3931;42.260;23.116;2023-02-19T08:30:51;56.63;;;17.03;;
7773;SDS011;3931;42.260;23.116;2023-02-19T08:33:18;73.97;;;18.80;;
7773;SDS011;3931;42.260;23.116;2023-02-19T08:35:46;87.23;;;17.73;;
7773;SDS011;3931;42.260;23.116;2023-02-19T08:38:13;74.00;;;17.20;;
7773;SDS011;3931;42.260;23.116;2023-02-19T08:40:40;58.43;;;18.93;;
7773;SDS011;3931;42.260;23.116;2023-02-19T08:43:06;57.60;;;19.27;;
7773;SDS011;3931;42.260;23.116;2023-02-19T08:45:35;58.10;;;22.37;;
7773;SDS011;3931;42.260;23.116;2023-02-19T08:48:02;77.20;;;25.03;;
7773;SDS011;3931;42.260;23.116;2023-02-19T08:50:28;60.03;;;20.40;;
7773;SDS011;3931;42.260;23.116;2023-02-19T08:52:55;77.03;;;24.90;;
7773;SDS011;3931;42.260;23.116;2023-02-19T08:55:23;54.63;;;19.57;;
7773;SDS011;3931;42.260;23.116;2023-02-19T08:57:49;55.03;;;18.80;;
7773;SDS011;3931;42.260;23.116;2023-02-19T09:00:15;94.03;;;17.13;;
7773;SDS011;3931;42.260;23.116;2023-02-19T09:02:41;65.77;;;17.27;;
7773;SDS011;3931;42.260;23.116;2023-02-19T09:05:08;60.40;;;15.20;;
7773;SDS011;3931;42.260;23.116;2023-02-19T09:07:35;86.13;;;15.90;;
7773;SDS011;3931;42.260;23.116;2023-02-19T09:10:02;71.40;;;19.50;;
7773;SDS011;3931;42.260;23.116;2023-02-19T09:12:29;91.00;;;25.40;;
7773;SDS011;3931;42.260;23.116;2023-02-19T09:14:55;107.27;;;20.30;;
7773;SDS011;3931;42.260;23.116;2023-02-19T09:17:21;99.80;;;22.47;;
7773;SDS011;3931;42.260;23.116;2023-02-19T09:19:47;43.10;;;13.53;;
7773;SDS011;3931;42.260;23.116;2023-02-19T09:22:13;80.40;;;16.33;;
7773;SDS011;3931;42.260;23.116;2023-02-19T09:24:39;79.00;;;15.53;;
7773;SDS011;3931;42.260;23.116;2023-02-19T09:27:07;83.23;;;14.53;;
7773;SDS011;3931;42.260;23.116;2023-02-19T09:29:34;50.03;;;12.30;;
7773;SDS011;3931;42.260;23.116;2023-02-19T09:32:01;52.97;;;11.47;;
7773;SDS011;3931;42.260;23.116;2023-02-19T09:34:27;51.30;;;11.73;;
7773;SDS011;3931;42.260;23.116;2023-02-19T09:36:54;37.10;;;10.90;;
7773;SDS011;3931;42.260;23.116;2023-02-19T09:39:20;50.70;;;12.33;;
7773;SDS011;3931;42.260;23.116;2023-02-19T09:41:46;40.60;;;10.40;;
7773;SDS011;3931;42.260;23.116;2023-02-19T09:44:17;83.90;;;21.40;;
7773;SDS011;3931;42.260;23.116;2023-02-19T09:46:49;53.73;;;17.17;;
7773;SDS011;3931;42.260;23.116;2023-02-19T09:49:19;45.70;;;17.47;;
7773;SDS011;3931;42.260;23.116;2023-02-19T09:51:50;45.33;;;17.47;;
7773;SDS011;3931;42.260;23.116;2023-02-19T09:54:20;41.10;;;12.90;;
7773;SDS011;3931;42.260;23.116;2023-02-19T09:56:48;36.63;;;10.17;;
7773;SDS011;3931;42.260;23.116;2023-02-19T09:59:16;20.10;;;8.50;;
7773;SDS011;3931;42.260;23.116;2023-02-19T10:01:45;28.07;;;11.67;;
7773;SDS011;3931;42.260;23.116;2023-02-19T10:04:14;19.97;;;8.23;;
7773;SDS011;3931;42.260;23.116;2023-02-19T10:06:40;22.43;;;7.87;;
7773;SDS011;3931;42.260;23.116;2023-02-19T10:09:14;23.53;;;9.50;;
7773;SDS011;3931;42.260;23.116;2023-02-19T10:11:45;29.23;;;9.43;;
7773;SDS011;3931;42.260;23.116;2023-02-19T10:14:14;40.67;;;7.57;;
7773;SDS011;3931;42.260;23.116;2023-02-19T10:16:44;35.00;;;8.63;;
7773;SDS011;3931;42.260;23.116;2023-02-19T10:19:13;30.00;;;9.20;;
7773;SDS011;3931;42.260;23.116;2023-02-19T10:21:40;17.43;;;8.50;;
7773;SDS011;3931;42.260;23.116;2023-02-19T10:24:07;27.80;;;7.80;;
7773;SDS011;3931;42.260;23.116;2023-02-19T10:26:39;42.63;;;15.97;;
7773;SDS011;3931;42.260;23.116;2023-02-19T10:29:05;21.57;;;6.90;;
7773;SDS011;3931;42.260;23.116;2023-02-19T10:31:32;20.53;;;7.80;;
7773;SDS011;3931;42.260;23.116;2023-02-19T10:33:58;18.50;;;7.40;;
7773;SDS011;3931;42.260;23.116;2023-02-19T10:36:27;24.00;;;6.93;;
7773;SDS011;3931;42.260;23.116;2023-02-19T10:38:54;20.30;;;8.10;;
7773;SDS011;3931;42.260;23.116;2023-02-19T10:41:22;23.43;;;8.23;;
7773;SDS011;3931;42.260;23.116;2023-02-19T10:43:50;19.30;;;7.40;;
7773;SDS011;3931;42.260;23.116;2023-02-19T10:46:19;13.27;;;6.40;;
7773;SDS011;3931;42.260;23.116;2023-02-19T10:48:50;15.73;;;6.70;;
7773;SDS011;3931;42.260;23.116;2023-02-19T10:51:19;18.53;;;6.47;;
7773;SDS011;3931;42.260;23.116;2023-02-19T10:53:47;13.67;;;6.23;;
7773;SDS011;3931;42.260;23.116;2023-02-19T10:56:15;13.37;;;5.80;;
7773;SDS011;3931;42.260;23.116;2023-02-19T10:58:47;18.80;;;6.07;;
7773;SDS011;3931;42.260;23.116;2023-02-19T11:01:15;12.47;;;5.03;;
7773;SDS011;3931;42.260;23.116;2023-02-19T11:03:44;15.70;;;6.20;;
7773;SDS011;3931;42.260;23.116;2023-02-19T11:06:12;8.40;;;4.50;;
7773;SDS011;3931;42.260;23.116;2023-02-19T11:08:47;9.17;;;5.23;;
7773;SDS011;3931;42.260;23.116;2023-02-19T11:14:04;10.40;;;5.87;;
7773;SDS011;3931;42.260;23.116;2023-02-19T11:16:43;12.00;;;4.80;;
7773;SDS011;3931;42.260;23.116;2023-02-19T11:19:27;7.00;;;4.47;;
7773;SDS011;3931;42.260;23.116;2023-02-19T11:21:57;20.07;;;5.63;;
7773;SDS011;3931;42.260;23.116;2023-02-19T11:24:27;11.47;;;5.00;;
7773;SDS011;3931;42.260;23.116;2023-02-19T11:26:58;13.53;;;3.50;;
7773;SDS011;3931;42.260;23.116;2023-02-19T11:29:26;6.90;;;3.00;;
7773;SDS011;3931;42.260;23.116;2023-02-19T11:31:58;12.73;;;4.47;;
7773;SDS011;3931;42.260;23.116;2023-02-19T11:34:47;6.30;;;3.73;;
7773;SDS011;3931;42.260;23.116;2023-02-19T11:37:14;9.83;;;4.33;;
7773;SDS011;3931;42.260;23.116;2023-02-19T11:39:42;8.30;;;4.67;;
7773;SDS011;3931;42.260;23.116;2023-02-19T11:42:29;9.43;;;4.87;;
7773;SDS011;3931;42.260;23.116;2023-02-19T11:45:16;19.13;;;4.37;;
7773;SDS011;3931;42.260;23.116;2023-02-19T11:48:07;6.50;;;3.80;;
7773;SDS011;3931;42.260;23.116;2023-02-19T11:50:50;6.40;;;4.60;;
7773;SDS011;3931;42.260;23.116;2023-02-19T11:53:24;10.10;;;4.90;;
7773;SDS011;3931;42.260;23.116;2023-02-19T12:01:44;12.90;;;5.73;;
7773;SDS011;3931;42.260;23.116;2023-02-19T12:07:50;11.60;;;4.90;;
7773;SDS011;3931;42.260;23.116;2023-02-19T12:10:31;8.97;;;5.17;;
7773;SDS011;3931;42.260;23.116;2023-02-19T12:13:09;23.50;;;6.50;;
7773;SDS011;3931;42.260;23.116;2023-02-19T12:15:48;12.40;;;5.70;;
7773;SDS011;3931;42.260;23.116;2023-02-19T12:18:38;11.00;;;5.30;;
7773;SDS011;3931;42.260;23.116;2023-02-19T12:21:28;12.50;;;4.23;;
7773;SDS011;3931;42.260;23.116;2023-02-19T12:27:10;8.77;;;4.60;;
7773;SDS011;3931;42.260;23.116;2023-02-19T12:29:51;15.17;;;4.90;;
7773;SDS011;3931;42.260;23.116;2023-02-19T12:32:46;16.93;;;4.70;;
7773;SDS011;3931;42.260;23.116;2023-02-19T12:35:24;10.47;;;5.30;;
7773;SDS011;3931;42.260;23.116;2023-02-19T12:38:10;11.77;;;5.03;;
7773;SDS011;3931;42.260;23.116;2023-02-19T12:40:48;6.07;;;4.17;;
7773;SDS011;3931;42.260;23.116;2023-02-19T12:43:25;7.50;;;4.10;;
7773;SDS011;3931;42.260;23.116;2023-02-19T12:45:54;16.73;;;4.87;;
7773;SDS011;3931;42.260;23.116;2023-02-19T12:48:25;13.27;;;4.60;;
7773;SDS011;3931;42.260;23.116;2023-02-19T12:50:57;13.10;;;4.27;;
7773;SDS011;3931;42.260;23.116;2023-02-19T12:53:29;5.83;;;4.27;;
7773;SDS011;3931;42.260;23.116;2023-02-19T12:56:03;8.30;;;4.87;;
7773;SDS011;3931;42.260;23.116;2023-02-19T12:58:36;7.17;;;5.03;;
7773;SDS011;3931;42.260;23.116;2023-02-19T13:01:08;5.90;;;4.00;;
7773;SDS011;3931;42.260;23.116;2023-02-19T13:03:38;5.97;;;3.70;;
7773;SDS011;3931;42.260;23.116;2023-02-19T13:06:10;14.90;;;5.03;;
7773;SDS011;3931;42.260;23.116;2023-02-19T13:08:51;11.57;;;4.73;;
7773;SDS011;3931;42.260;23.116;2023-02-19T13:11:21;13.10;;;4.80;;
7773;SDS011;3931;42.260;23.116;2023-02-19T13:13:53;9.33;;;5.20;;
7773;SDS011;3931;42.260;23.116;2023-02-19T13:16:23;12.00;;;5.17;;
7773;SDS011;3931;42.260;23.116;2023-02-19T13:18:57;13.53;;;6.17;;
7773;SDS011;3931;42.260;23.116;2023-02-19T13:21:26;11.20;;;5.80;;
7773;SDS011;3931;42.260;23.116;2023-02-19T13:24:15;9.50;;;5.17;;
7773;SDS011;3931;42.260;23.116;2023-02-19T13:26:48;13.97;;;4.50;;
7773;SDS011;3931;42.260;23.116;2023-02-19T13:29:28;5.80;;;4.10;;
7773;SDS011;3931;42.260;23.116;2023-02-19T13:32:17;6.40;;;4.33;;
7773;SDS011;3931;42.260;23.116;2023-02-19T13:35:05;7.30;;;3.97;;
7773;SDS011;3931;42.260;23.116;2023-02-19T13:37:46;10.33;;;4.43;;
7773;SDS011;3931;42.260;23.116;2023-02-19T13:40:17;8.83;;;4.83;;
7773;SDS011;3931;42.260;23.116;2023-02-19T13:42:50;6.97;;;4.10;;
7773;SDS011;3931;42.260;23.116;2023-02-19T13:45:20;7.07;;;4.30;;
7773;SDS011;3931;42.260;23.116;2023-02-19T13:47:58;8.37;;;5.03;;
7773;SDS011;3931;42.260;23.116;2023-02-19T13:50:27;9.57;;;5.00;;
7773;SDS011;3931;42.260;23.116;2023-02-19T13:52:55;14.83;;;5.50;;
7773;SDS011;3931;42.260;23.116;2023-02-19T14:01:15;9.73;;;4.63;;
7773;SDS011;3931;42.260;23.116;2023-02-19T14:03:46;5.27;;;4.17;;
7773;SDS011;3931;42.260;23.116;2023-02-19T14:06:17;8.33;;;5.17;;
7773;SDS011;3931;42.260;23.116;2023-02-19T14:08:48;7.57;;;4.97;;
7773;SDS011;3931;42.260;23.116;2023-02-19T14:11:15;8.27;;;4.90;;
7773;SDS011;3931;42.260;23.116;2023-02-19T14:13:57;4.40;;;3.60;;
7773;SDS011;3931;42.260;23.116;2023-02-19T14:25:39;13.00;;;7.30;;
7773;SDS011;3931;42.260;23.116;2023-02-19T14:28:17;35.33;;;9.40;;
7773;SDS011;3931;42.260;23.116;2023-02-19T14:30:54;14.80;;;6.60;;
7773;SDS011;3931;42.260;23.116;2023-02-19T14:33:22;25.70;;;10.00;;
7773;SDS011;3931;42.260;23.116;2023-02-19T14:35:51;14.30;;;8.27;;
7773;SDS011;3931;42.260;23.116;2023-02-19T14:38:21;29.17;;;12.07;;
7773;SDS011;3931;42.260;23.116;2023-02-19T14:40:51;8.33;;;5.80;;
7773;SDS011;3931;42.260;23.116;2023-02-19T14:43:20;25.17;;;11.60;;
7773;SDS011;3931;42.260;23.116;2023-02-19T14:45:49;15.43;;;6.37;;
7773;SDS011;3931;42.260;23.116;2023-02-19T14:48:20;15.20;;;6.63;;
7773;SDS011;3931;42.260;23.116;2023-02-19T14:50:50;11.27;;;6.17;;
7773;SDS011;3931;42.260;23.116;2023-02-19T14:53:23;10.90;;;7.30;;
7773;SDS011;3931;42.260;23.116;2023-02-19T14:55:51;11.73;;;6.63;;
7773;SDS011;3931;42.260;23.116;2023-02-19T14:58:21;12.67;;;6.60;;
7773;SDS011;3931;42.260;23.116;2023-02-19T15:00:50;22.53;;;6.67;;
7773;SDS011;3931;42.260;23.116;2023-02-19T15:03:27;25.40;;;7.70;;
7773;SDS011;3931;42.260;23.116;2023-02-19T15:05:57;28.00;;;9.40;;
7773;SDS011;3931;42.260;23.116;2023-02-19T15:08:31;20.20;;;9.57;;
7773;SDS011;3931;42.260;23.116;2023-02-19T15:11:02;18.10;;;8.10;;
7773;SDS011;3931;42.260;23.116;2023-02-19T15:13:33;21.10;;;8.47;;
7773;SDS011;3931;42.260;23.116;2023-02-19T15:16:00;17.70;;;9.80;;
7773;SDS011;3931;42.260;23.116;2023-02-19T15:18:26;26.60;;;13.53;;
7773;SDS011;3931;42.260;23.116;2023-02-19T15:20:58;23.97;;;12.27;;
7773;SDS011;3931;42.260;23.116;2023-02-19T15:23:27;23.20;;;11.90;;
7773;SDS011;3931;42.260;23.116;2023-02-19T15:25:55;23.47;;;12.63;;
7773;SDS011;3931;42.260;23.116;2023-02-19T15:28:26;25.93;;;10.47;;
7773;SDS011;3931;42.260;23.116;2023-02-19T15:31:02;24.23;;;11.80;;